createdAt,value
2023-05-08T00:00:47.488Z,0.39
2023-05-08T00:03:18.630Z,0.37
2023-05-08T00:05:46.673Z,0.34
2023-05-08T00:08:14.573Z,0.34
2023-05-08T00:10:43.373Z,0.33
2023-05-08T00:13:11.702Z,0.31
2023-05-08T00:15:39.735Z,0.29
2023-05-08T00:18:07.810Z,0.27
2023-05-08T00:20:37.030Z,0.25
2023-05-08T00:23:05.087Z,0.23
2023-05-08T00:25:33.297Z,0.22
2023-05-08T00:28:01.264Z,0.22
2023-05-08T00:30:29.601Z,0.20
2023-05-08T00:32:57.821Z,0.18
2023-05-08T00:35:26.939Z,0.17
2023-05-08T00:37:55.316Z,0.16
2023-05-08T00:40:23.448Z,0.13
2023-05-08T00:42:51.360Z,0.12
2023-05-08T00:45:19.802Z,0.09
2023-05-08T00:47:48.149Z,0.07
2023-05-08T00:50:16.341Z,0.05
2023-05-08T00:52:45.071Z,0.04
2023-05-08T00:55:13.662Z,0.01
2023-05-08T00:57:42.029Z,-0.01
2023-05-08T01:00:10.771Z,-0.02
2023-05-08T01:02:40.804Z,-0.04
2023-05-08T01:05:10.050Z,-0.05
2023-05-08T01:07:39.049Z,-0.07
2023-05-08T01:10:07.681Z,-0.08
2023-05-08T01:12:49.792Z,-0.09
2023-05-08T01:15:29.451Z,-0.10
2023-05-08T01:18:12.689Z,-0.12
2023-05-08T01:20:49.608Z,-0.15
2023-05-08T01:23:23.266Z,-0.17
2023-05-08T01:26:12.357Z,-0.20
2023-05-08T01:29:17.975Z,-0.23
2023-05-08T01:32:21.360Z,-0.25
2023-05-08T01:35:19.816Z,-0.27
2023-05-08T01:38:12.757Z,-0.29
2023-05-08T01:40:46.681Z,-0.32
2023-05-08T01:43:25.459Z,-0.34
2023-05-08T01:45:56.209Z,-0.35
2023-05-08T01:48:35.861Z,-0.37
2023-05-08T01:51:17.128Z,-0.38
2023-05-08T01:53:49.649Z,-0.39
2023-05-08T01:56:22.612Z,-0.40
2023-05-08T01:58:53.098Z,-0.41
2023-05-08T02:01:24.374Z,-0.44
2023-05-08T02:03:54.160Z,-0.45
2023-05-08T02:06:23.540Z,-0.47
2023-05-08T02:08:53.220Z,-0.48
2023-05-08T02:11:22.946Z,-0.49
2023-05-08T02:13:52.805Z,-0.52
2023-05-08T02:16:22.110Z,-0.55
2023-05-08T02:18:53.604Z,-0.57
2023-05-08T02:21:24.194Z,-0.59
2023-05-08T02:23:54.702Z,-0.60
2023-05-08T02:26:23.497Z,-0.61
2023-05-08T02:28:55.658Z,-0.63
2023-05-08T02:31:24.987Z,-0.64
2023-05-08T02:33:54.141Z,-0.65
2023-05-08T02:36:23.156Z,-0.68
2023-05-08T02:38:54.248Z,-0.69
2023-05-08T02:41:28.533Z,-0.71
2023-05-08T02:44:04.128Z,-0.72
2023-05-08T02:46:54.087Z,-0.72
2023-05-08T02:49:46.016Z,-0.73
2023-05-08T02:52:18.897Z,-0.72
2023-05-08T02:54:58.641Z,-0.72
2023-05-08T02:57:51.131Z,-0.73
2023-05-08T03:00:27.839Z,-0.73
2023-05-08T03:03:01.392Z,-0.74
2023-05-08T03:05:32.052Z,-0.73
2023-05-08T03:08:05.929Z,-0.69
2023-05-08T03:10:36.959Z,-0.54
2023-05-08T03:13:07.356Z,-0.29
2023-05-08T03:15:49.849Z,0.05
2023-05-08T03:18:19.353Z,0.46
2023-05-08T03:20:53.019Z,0.92
2023-05-08T03:23:26.328Z,1.38
2023-05-08T03:25:56.627Z,1.66
2023-05-08T03:28:26.081Z,1.80
2023-05-08T03:30:57.495Z,1.96
2023-05-08T03:33:27.014Z,2.12
2023-05-08T03:35:56.661Z,2.29
2023-05-08T03:38:25.040Z,2.42
2023-05-08T03:40:54.082Z,2.56
2023-05-08T03:43:24.971Z,2.69
2023-05-08T03:45:54.580Z,2.81
2023-05-08T03:48:24.112Z,2.91
2023-05-08T03:50:52.828Z,3.02
2023-05-08T03:53:22.064Z,3.16
2023-05-08T03:55:52.828Z,3.37
2023-05-08T03:58:28.746Z,3.48
2023-05-08T04:05:39.782Z,3.79
2023-05-08T04:08:32.453Z,3.95
2023-05-08T04:11:26.891Z,4.37
2023-05-08T04:14:02.205Z,4.92
2023-05-08T04:16:35.614Z,5.28
2023-05-08T04:19:11.038Z,5.67
2023-05-08T04:21:43.376Z,6.21
2023-05-08T04:24:15.980Z,6.67
2023-05-08T04:26:45.925Z,7.07
2023-05-08T04:29:15.272Z,7.50
2023-05-08T04:34:37.844Z,8.52
2023-05-08T04:37:08.223Z,9.63
2023-05-08T04:39:36.736Z,11.12
2023-05-08T04:42:05.066Z,12.57
2023-05-08T04:44:35.049Z,13.97
2023-05-08T04:47:02.944Z,15.36
2023-05-08T04:49:31.303Z,16.68
2023-05-08T04:51:59.435Z,17.77
2023-05-08T04:54:27.835Z,18.86
2023-05-08T04:56:57.035Z,20.02
2023-05-08T04:59:25.244Z,21.20
2023-05-08T05:01:53.509Z,22.58
2023-05-08T05:04:22.584Z,23.62
2023-05-08T11:04:38.260Z,14.30
2023-05-08T11:07:06.563Z,14.20
2023-05-08T11:09:43.657Z,14.23
2023-05-08T11:12:28.013Z,14.33
2023-05-08T11:15:07.625Z,14.52
2023-05-08T11:17:35.890Z,14.84
2023-05-08T11:20:06.195Z,15.05
2023-05-08T11:22:35.084Z,15.23
2023-05-08T11:25:05.931Z,15.38
2023-05-08T11:27:48.743Z,15.42
2023-05-08T11:30:39.236Z,15.45
2023-05-08T11:33:07.290Z,15.59
2023-05-08T11:35:45.013Z,15.71
2023-05-08T11:38:18.705Z,15.83
2023-05-08T11:41:02.552Z,15.76
2023-05-08T11:43:32.860Z,15.70
2023-05-08T11:46:13.996Z,15.86
2023-05-08T11:48:42.392Z,15.92
2023-05-08T11:51:10.494Z,15.91
2023-05-08T11:53:38.395Z,15.85
2023-05-08T11:56:06.393Z,15.88
2023-05-08T11:58:34.327Z,15.92
2023-05-08T12:01:02.531Z,15.85
2023-05-08T12:03:30.641Z,15.87
2023-05-08T12:05:59.999Z,15.89
2023-05-08T12:08:28.088Z,15.89
2023-05-08T12:10:59.330Z,15.80
2023-05-08T12:13:30.184Z,15.70
2023-05-08T12:16:00.779Z,15.70
2023-05-08T12:18:30.540Z,15.92
2023-05-08T12:21:01.151Z,16.17
2023-05-08T12:23:30.292Z,16.50
2023-05-08T12:26:02.171Z,16.66
2023-05-08T12:28:32.518Z,16.60
2023-05-08T12:31:03.937Z,16.60
2023-05-08T12:33:33.743Z,16.75
2023-05-08T12:36:02.375Z,16.89
2023-05-08T12:38:30.366Z,17.05
2023-05-08T12:40:58.937Z,17.06
2023-05-08T12:43:37.520Z,16.99
2023-05-08T12:46:05.882Z,16.80
2023-05-08T12:48:34.088Z,16.70
2023-05-08T12:51:03.981Z,16.53
2023-05-08T12:53:33.265Z,16.38
2023-05-08T12:56:03.556Z,16.41
2023-05-08T12:58:33.987Z,16.48
2023-05-08T13:01:13.497Z,16.37
2023-05-08T13:03:42.165Z,16.24
2023-05-08T13:06:21.656Z,16.26
2023-05-08T13:08:57.807Z,16.37
2023-05-08T13:11:34.321Z,16.43
2023-05-08T13:14:02.707Z,16.30
2023-05-08T13:16:31.212Z,16.15
2023-05-08T13:18:59.364Z,15.99
2023-05-08T13:21:28.050Z,15.84
2023-05-08T13:23:56.888Z,15.73
2023-05-08T13:26:25.830Z,15.68
2023-05-08T13:28:56.488Z,15.67
2023-05-08T13:31:27.531Z,15.71
2023-05-08T13:33:55.778Z,15.78
2023-05-08T13:36:24.580Z,15.82
2023-05-08T13:38:54.830Z,15.81
2023-05-08T13:41:23.192Z,15.79
2023-05-08T13:43:51.306Z,15.89
2023-05-08T13:46:19.309Z,15.98
2023-05-08T13:48:48.064Z,15.98
2023-05-08T13:51:16.828Z,15.99
2023-05-08T13:53:45.182Z,16.07
2023-05-08T13:56:13.696Z,16.05
2023-05-08T13:58:41.822Z,15.96
2023-05-08T14:01:24.971Z,15.92
2023-05-08T14:03:55.592Z,15.99
2023-05-08T14:06:30.094Z,16.07
2023-05-08T14:09:01.049Z,16.09
2023-05-08T14:11:30.146Z,16.03
2023-05-08T14:13:58.421Z,16.09
2023-05-08T14:16:26.795Z,16.04
2023-05-08T14:18:55.639Z,16.08
2023-05-08T14:21:24.808Z,16.19
2023-05-08T14:23:52.896Z,16.23
2023-05-08T14:26:21.559Z,16.20
2023-05-08T14:28:49.796Z,16.20
2023-05-08T14:31:18.054Z,16.23
2023-05-08T14:33:46.082Z,16.26
2023-05-08T14:36:14.253Z,16.20
2023-05-08T14:38:42.241Z,16.09
2023-05-08T14:41:10.259Z,16.08
2023-05-08T14:43:38.507Z,16.14
2023-05-08T14:46:06.600Z,16.11
2023-05-08T14:48:34.665Z,16.07
2023-05-08T14:51:02.867Z,16.13
2023-05-08T14:53:32.099Z,16.12
2023-05-08T14:56:00.695Z,16.05
2023-05-08T14:58:28.940Z,16.02
2023-05-08T15:00:56.958Z,16.05
2023-05-08T15:03:28.754Z,16.04
2023-05-08T15:06:09.039Z,15.98
2023-05-08T15:08:37.141Z,15.85
2023-05-08T15:11:05.288Z,15.72
2023-05-08T15:13:33.221Z,15.61
2023-05-08T15:16:01.307Z,15.55
2023-05-08T15:18:29.373Z,15.55
2023-05-08T15:20:59.637Z,15.51
2023-05-08T15:23:27.805Z,15.45
2023-05-08T15:25:55.751Z,15.44
2023-05-08T15:28:23.922Z,15.48
2023-05-08T15:30:52.033Z,15.47
2023-05-08T15:33:20.120Z,15.46
2023-05-08T15:35:48.146Z,15.41
2023-05-08T15:38:16.253Z,15.39
2023-05-08T15:40:44.252Z,15.38
2023-05-08T15:43:12.638Z,15.38
2023-05-08T15:45:40.716Z,15.37
2023-05-08T15:48:08.817Z,15.37
2023-05-08T15:50:36.905Z,15.33
2023-05-08T15:53:05.791Z,15.28
2023-05-08T15:55:33.856Z,15.20
2023-05-08T15:58:01.955Z,15.17
2023-05-08T16:00:48.886Z,15.13
2023-05-08T16:03:17.832Z,15.11
2023-05-08T16:05:46.481Z,15.05
2023-05-08T16:08:15.530Z,14.99
2023-05-08T16:10:44.270Z,14.94
2023-05-08T16:13:12.634Z,14.92
2023-05-08T16:15:41.403Z,14.93
2023-05-08T16:18:09.550Z,14.92
2023-05-08T16:20:40.517Z,14.90
2023-05-08T16:23:08.779Z,14.84
2023-05-08T16:25:37.023Z,14.81
2023-05-08T16:28:05.361Z,14.78
2023-05-08T16:30:33.353Z,14.74
2023-05-08T16:33:01.930Z,14.71
2023-05-08T16:35:33.191Z,14.70
2023-05-08T16:38:02.952Z,14.69
2023-05-08T16:40:31.346Z,14.67
2023-05-08T16:43:01.123Z,14.64
2023-05-08T16:45:29.662Z,14.59
2023-05-08T16:47:57.630Z,14.51
2023-05-08T16:50:25.585Z,14.42
2023-05-08T16:52:53.814Z,14.34
2023-05-08T16:55:21.731Z,14.25
2023-05-08T16:57:49.817Z,14.19
2023-05-08T17:00:18.354Z,14.11
2023-05-08T17:02:46.458Z,14.06
2023-05-08T17:05:15.078Z,14.03
2023-05-08T17:07:43.216Z,13.98
2023-05-08T17:10:12.048Z,13.92
2023-05-08T17:12:40.062Z,13.87
2023-05-08T17:15:08.611Z,13.81
2023-05-08T17:17:36.642Z,13.77
2023-05-08T17:20:05.497Z,13.71
2023-05-08T17:22:33.657Z,13.65
2023-05-08T17:25:02.226Z,13.59
2023-05-08T17:27:31.022Z,13.53
2023-05-08T17:29:59.033Z,13.46
2023-05-08T17:32:27.133Z,13.39
2023-05-08T17:34:55.296Z,13.33
2023-05-08T17:37:23.286Z,13.27
2023-05-08T17:39:51.318Z,13.22
2023-05-08T17:42:19.291Z,13.16
2023-05-08T17:44:47.277Z,13.10
2023-05-08T17:47:15.654Z,13.03
2023-05-08T17:49:43.891Z,12.96
2023-05-08T17:52:11.990Z,12.89
2023-05-08T17:54:40.007Z,12.80
2023-05-08T17:57:09.828Z,12.71
2023-05-08T17:59:37.766Z,12.61
2023-05-08T18:02:06.541Z,12.51
2023-05-08T18:04:34.795Z,12.42
2023-05-08T18:07:04.357Z,12.33
2023-05-08T18:09:33.002Z,12.24
2023-05-08T18:12:02.595Z,12.14
2023-05-08T18:14:33.263Z,12.03
2023-05-08T18:17:01.602Z,11.90
2023-05-08T18:19:29.650Z,11.75
2023-05-08T18:21:57.626Z,11.58
2023-05-08T18:24:25.703Z,11.37
2023-05-08T18:26:53.687Z,11.18
2023-05-08T18:29:21.812Z,11.01
2023-05-08T18:31:49.802Z,10.83
2023-05-08T18:34:17.837Z,10.64
2023-05-08T18:36:45.872Z,10.44
2023-05-08T18:39:14.044Z,10.26
2023-05-08T18:41:42.247Z,10.08
2023-05-08T18:44:11.228Z,9.88
2023-05-08T18:46:39.305Z,9.66
2023-05-08T18:49:07.446Z,9.46
2023-05-08T18:51:44.449Z,9.26
2023-05-08T18:54:12.476Z,9.03
2023-05-08T18:56:40.523Z,8.84
2023-05-08T18:59:08.820Z,8.66
2023-05-08T19:04:37.407Z,8.28
2023-05-08T19:07:06.071Z,8.12
2023-05-08T19:09:34.279Z,7.97
2023-05-08T19:12:02.353Z,7.81
2023-05-08T19:14:30.457Z,7.64
2023-05-08T19:16:58.732Z,7.48
2023-05-08T19:19:27.707Z,7.33
2023-05-08T19:21:55.721Z,7.19
2023-05-08T19:24:26.349Z,7.05
2023-05-08T19:26:54.299Z,6.94
2023-05-08T19:29:22.413Z,6.79
2023-05-08T19:31:50.553Z,6.65
2023-05-08T19:34:18.574Z,6.51
2023-05-08T19:36:46.947Z,6.40
2023-05-08T19:39:14.991Z,6.28
2023-05-08T19:41:43.798Z,6.16
2023-05-08T19:44:11.891Z,6.06
2023-05-08T19:46:40.359Z,5.97
2023-05-08T19:49:08.812Z,5.87
2023-05-08T19:51:36.934Z,5.79
2023-05-08T19:54:05.824Z,5.70
2023-05-08T19:56:35.068Z,5.61
2023-05-08T19:59:03.105Z,5.50
2023-05-08T20:01:31.222Z,5.42
2023-05-08T20:04:00.726Z,5.34
2023-05-08T20:06:29.768Z,5.28
2023-05-08T20:08:57.753Z,5.20
2023-05-08T20:11:26.136Z,5.13
2023-05-08T20:13:54.996Z,5.04
2023-05-08T20:16:23.133Z,4.96
2023-05-08T20:18:53.560Z,4.88
2023-05-08T20:21:22.207Z,4.80
2023-05-08T20:23:51.969Z,4.74
2023-05-08T20:26:20.137Z,4.68
2023-05-08T20:28:48.643Z,4.61
2023-05-08T20:31:17.496Z,4.56
2023-05-08T20:33:45.683Z,4.49
2023-05-08T20:36:13.798Z,4.42
2023-05-08T20:38:42.288Z,4.36
2023-05-08T20:41:10.292Z,4.31
2023-05-08T20:43:38.588Z,4.25
2023-05-08T20:46:06.701Z,4.19
2023-05-08T20:48:34.799Z,4.16
2023-05-08T20:51:03.219Z,4.10
2023-05-08T20:53:32.211Z,4.06
2023-05-08T20:56:05.089Z,4.00
2023-05-08T20:58:33.683Z,3.94
2023-05-08T21:01:01.999Z,3.89
2023-05-08T21:03:31.056Z,3.85
2023-05-08T21:05:59.284Z,3.80
2023-05-08T21:08:27.617Z,3.75
2023-05-08T21:10:56.266Z,3.70
2023-05-08T21:13:25.352Z,3.66
2023-05-08T21:15:53.631Z,3.63
2023-05-08T21:18:21.660Z,3.59
2023-05-08T21:20:50.510Z,3.54
2023-05-08T21:23:21.049Z,3.49
2023-05-08T21:25:49.978Z,3.46
2023-05-08T21:28:18.103Z,3.44
2023-05-08T21:30:46.397Z,3.40
2023-05-08T21:33:15.495Z,3.35
2023-05-08T21:35:43.761Z,3.31
2023-05-08T21:38:12.257Z,3.27
2023-05-08T21:40:40.475Z,3.25
2023-05-08T21:43:11.477Z,3.22
2023-05-08T21:45:51.679Z,3.18
2023-05-08T21:48:19.816Z,3.15
2023-05-08T21:50:47.808Z,3.11
2023-05-08T21:53:16.179Z,3.08
2023-05-08T21:55:44.170Z,3.04
2023-05-08T21:58:13.161Z,3.00
2023-05-08T22:00:41.564Z,2.96
2023-05-08T22:03:09.581Z,2.93
2023-05-08T22:05:37.749Z,2.90
2023-05-08T22:08:06.233Z,2.86
2023-05-08T22:10:34.182Z,2.81
2023-05-08T22:13:02.680Z,2.77
2023-05-08T22:15:31.171Z,2.74
2023-05-08T22:18:00.262Z,2.70
2023-05-08T22:20:28.434Z,2.66
2023-05-08T22:22:56.345Z,2.63
2023-05-08T22:25:25.391Z,2.60
2023-05-08T22:27:53.447Z,2.57
2023-05-08T22:30:21.801Z,2.53
2023-05-08T22:32:56.251Z,2.50
2023-05-08T22:35:26.866Z,2.47
2023-05-08T22:37:57.321Z,2.43
2023-05-08T22:40:28.953Z,2.40
2023-05-08T22:42:58.871Z,2.36
2023-05-08T22:45:27.273Z,2.33
2023-05-08T22:47:55.707Z,2.31
2023-05-08T22:50:23.917Z,2.27
2023-05-08T22:52:52.580Z,2.24
2023-05-08T22:55:20.708Z,2.21
2023-05-08T22:57:48.765Z,2.17
2023-05-08T23:00:16.935Z,2.15
2023-05-08T23:02:45.086Z,2.13
2023-05-08T23:05:13.333Z,2.10
2023-05-08T23:07:41.580Z,2.08
2023-05-08T23:10:10.185Z,2.06
2023-05-08T23:12:38.213Z,2.04
2023-05-08T23:15:07.140Z,2.01
2023-05-08T23:17:35.303Z,1.99
2023-05-08T23:20:04.404Z,1.97
2023-05-08T23:22:32.865Z,1.94
2023-05-08T23:25:00.915Z,1.91
2023-05-08T23:27:28.994Z,1.90
2023-05-08T23:29:57.048Z,1.88
2023-05-08T23:32:25.314Z,1.86
2023-05-08T23:34:53.402Z,1.84
2023-05-08T23:37:22.051Z,1.81
2023-05-08T23:39:50.099Z,1.78
2023-05-08T23:42:18.028Z,1.74
2023-05-08T23:44:46.049Z,1.72
2023-05-08T23:47:14.349Z,1.68
2023-05-08T23:49:42.422Z,1.63
2023-05-08T23:52:10.495Z,1.60
2023-05-08T23:54:38.476Z,1.59
2023-05-08T23:57:06.708Z,1.58
2023-05-08T23:59:35.153Z,1.56
